sensor_id;sensor_type;location;lat;lon;timestamp;temperature;humidity
11840;DHT22;5979;50.800;4.904;2023-12-29T00:00:45;10.50;99.90
11840;DHT22;5979;50.800;4.904;2023-12-29T00:03:11;10.50;99.90
11840;DHT22;5979;50.800;4.904;2023-12-29T00:05:37;10.40;99.90
11840;DHT22;5979;50.800;4.904;2023-12-29T00:08:03;10.40;99.90
11840;DHT22;5979;50.800;4.904;2023-12-29T00:10:28;10.40;99.90
11840;DHT22;5979;50.800;4.904;2023-12-29T00:12:54;10.40;99.90
11840;DHT22;5979;50.800;4.904;2023-12-29T00:15:20;10.40;99.90
11840;DHT22;5979;50.800;4.904;2023-12-29T00:17:45;10.40;99.90
11840;DHT22;5979;50.800;4.904;2023-12-29T00:20:12;10.40;99.90
11840;DHT22;5979;50.800;4.904;2023-12-29T00:22:38;10.40;99.90
11840;DHT22;5979;50.800;4.904;2023-12-29T00:25:04;10.40;99.90
11840;DHT22;5979;50.800;4.904;2023-12-29T00:27:30;10.40;99.90
11840;DHT22;5979;50.800;4.904;2023-12-29T00:29:56;10.30;99.90
11840;DHT22;5979;50.800;4.904;2023-12-29T00:32:22;10.30;99.90
11840;DHT22;5979;50.800;4.904;2023-12-29T00:34:47;10.30;99.90
11840;DHT22;5979;50.800;4.904;2023-12-29T00:37:13;10.30;99.90
11840;DHT22;5979;50.800;4.904;2023-12-29T00:39:39;10.30;99.90
11840;DHT22;5979;50.800;4.904;2023-12-29T00:42:07;10.30;99.90
11840;DHT22;5979;50.800;4.904;2023-12-29T00:44:33;10.30;99.90
11840;DHT22;5979;50.800;4.904;2023-12-29T00:47:00;10.30;99.90
11840;DHT22;5979;50.800;4.904;2023-12-29T00:49:26;10.30;99.90
11840;DHT22;5979;50.800;4.904;2023-12-29T00:51:52;10.40;99.90
11840;DHT22;5979;50.800;4.904;2023-12-29T00:54:18;10.30;99.90
11840;DHT22;5979;50.800;4.904;2023-12-29T00:56:51;10.30;99.90
11840;DHT22;5979;50.800;4.904;2023-12-29T00:59:18;10.30;99.90
11840;DHT22;5979;50.800;4.904;2023-12-29T01:02:03;10.40;99.90
11840;DHT22;5979;50.800;4.904;2023-12-29T01:04:28;10.40;99.90
11840;DHT22;5979;50.800;4.904;2023-12-29T01:06:54;10.40;99.90
11840;DHT22;5979;50.800;4.904;2023-12-29T01:09:20;10.40;99.90
11840;DHT22;5979;50.800;4.904;2023-12-29T01:11:45;10.40;99.90
11840;DHT22;5979;50.800;4.904;2023-12-29T01:14:11;10.40;99.90
11840;DHT22;5979;50.800;4.904;2023-12-29T01:16:37;10.40;99.90
11840;DHT22;5979;50.800;4.904;2023-12-29T01:19:02;10.40;99.90
11840;DHT22;5979;50.800;4.904;2023-12-29T01:21:28;10.40;99.90
11840;DHT22;5979;50.800;4.904;2023-12-29T01:23:54;10.40;99.90
11840;DHT22;5979;50.800;4.904;2023-12-29T01:26:19;10.40;99.90
11840;DHT22;5979;50.800;4.904;2023-12-29T01:28:45;10.40;99.90
11840;DHT22;5979;50.800;4.904;2023-12-29T01:31:11;10.40;99.90
11840;DHT22;5979;50.800;4.904;2023-12-29T01:33:38;10.40;99.90
11840;DHT22;5979;50.800;4.904;2023-12-29T01:36:04;10.40;99.90
11840;DHT22;5979;50.800;4.904;2023-12-29T01:38:30;10.40;99.90
11840;DHT22;5979;50.800;4.904;2023-12-29T01:40:56;10.40;99.90
11840;DHT22;5979;50.800;4.904;2023-12-29T01:43:22;10.30;99.90
11840;DHT22;5979;50.800;4.904;2023-12-29T01:45:47;10.30;99.90
11840;DHT22;5979;50.800;4.904;2023-12-29T01:48:13;10.30;99.90
11840;DHT22;5979;50.800;4.904;2023-12-29T01:50:39;10.30;99.90
11840;DHT22;5979;50.800;4.904;2023-12-29T01:53:06;10.30;99.90
11840;DHT22;5979;50.800;4.904;2023-12-29T01:55:32;10.30;99.90
11840;DHT22;5979;50.800;4.904;2023-12-29T01:57:59;10.30;99.90
11840;DHT22;5979;50.800;4.904;2023-12-29T02:00:26;10.30;99.90
11840;DHT22;5979;50.800;4.904;2023-12-29T02:02:52;10.30;99.90
11840;DHT22;5979;50.800;4.904;2023-12-29T02:05:20;10.30;99.90
11840;DHT22;5979;50.800;4.904;2023-12-29T02:07:50;10.30;99.90
11840;DHT22;5979;50.800;4.904;2023-12-29T02:10:17;10.20;99.90
11840;DHT22;5979;50.800;4.904;2023-12-29T02:12:46;10.20;99.90
11840;DHT22;5979;50.800;4.904;2023-12-29T02:15:13;10.20;99.90
11840;DHT22;5979;50.800;4.904;2023-12-29T02:17:43;10.20;99.90
11840;DHT22;5979;50.800;4.904;2023-12-29T02:20:10;10.20;99.90
11840;DHT22;5979;50.800;4.904;2023-12-29T02:22:36;10.20;99.90
11840;DHT22;5979;50.800;4.904;2023-12-29T02:25:02;10.20;99.90
11840;DHT22;5979;50.800;4.904;2023-12-29T02:32:49;10.20;99.90
11840;DHT22;5979;50.800;4.904;2023-12-29T02:35:21;10.20;99.90
11840;DHT22;5979;50.800;4.904;2023-12-29T02:37:48;10.20;99.90
11840;DHT22;5979;50.800;4.904;2023-12-29T02:40:15;10.20;99.90
11840;DHT22;5979;50.800;4.904;2023-12-29T02:42:46;10.20;99.90
11840;DHT22;5979;50.800;4.904;2023-12-29T02:45:13;10.20;99.90
11840;DHT22;5979;50.800;4.904;2023-12-29T02:47:38;10.20;99.90
11840;DHT22;5979;50.800;4.904;2023-12-29T02:50:04;10.30;99.90
11840;DHT22;5979;50.800;4.904;2023-12-29T02:52:30;10.30;99.90
11840;DHT22;5979;50.800;4.904;2023-12-29T02:54:56;10.30;99.90
11840;DHT22;5979;50.800;4.904;2023-12-29T02:57:21;10.30;99.90
11840;DHT22;5979;50.800;4.904;2023-12-29T02:59:47;10.30;99.90
11840;DHT22;5979;50.800;4.904;2023-12-29T03:02:13;10.40;99.90
11840;DHT22;5979;50.800;4.904;2023-12-29T03:04:38;10.40;99.90
11840;DHT22;5979;50.800;4.904;2023-12-29T03:07:04;10.40;99.90
11840;DHT22;5979;50.800;4.904;2023-12-29T03:09:30;10.40;99.90
11840;DHT22;5979;50.800;4.904;2023-12-29T03:11:55;10.40;99.90
11840;DHT22;5979;50.800;4.904;2023-12-29T03:14:21;10.50;99.90
11840;DHT22;5979;50.800;4.904;2023-12-29T03:16:47;10.50;99.90
11840;DHT22;5979;50.800;4.904;2023-12-29T03:19:12;10.50;99.90
11840;DHT22;5979;50.800;4.904;2023-12-29T03:21:38;10.50;99.90
11840;DHT22;5979;50.800;4.904;2023-12-29T03:24:04;10.60;99.90
11840;DHT22;5979;50.800;4.904;2023-12-29T03:26:29;10.60;99.90
11840;DHT22;5979;50.800;4.904;2023-12-29T03:28:55;10.60;99.90
11840;DHT22;5979;50.800;4.904;2023-12-29T03:31:21;10.60;99.90
11840;DHT22;5979;50.800;4.904;2023-12-29T03:33:46;10.60;99.90
11840;DHT22;5979;50.800;4.904;2023-12-29T03:36:12;10.60;99.90
11840;DHT22;5979;50.800;4.904;2023-12-29T03:38:38;10.60;99.90
11840;DHT22;5979;50.800;4.904;2023-12-29T03:41:04;10.60;99.90
11840;DHT22;5979;50.800;4.904;2023-12-29T03:43:29;10.50;99.90
11840;DHT22;5979;50.800;4.904;2023-12-29T03:46:20;10.50;99.90
11840;DHT22;5979;50.800;4.904;2023-12-29T03:48:46;10.50;99.90
11840;DHT22;5979;50.800;4.904;2023-12-29T03:51:13;10.50;99.90
11840;DHT22;5979;50.800;4.904;2023-12-29T03:53:38;10.60;99.90
11840;DHT22;5979;50.800;4.904;2023-12-29T03:56:09;10.50;99.90
11840;DHT22;5979;50.800;4.904;2023-12-29T03:58:35;10.50;99.90
11840;DHT22;5979;50.800;4.904;2023-12-29T04:01:01;10.50;99.90
11840;DHT22;5979;50.800;4.904;2023-12-29T04:03:27;10.50;99.90
11840;DHT22;5979;50.800;4.904;2023-12-29T04:05:53;10.50;99.90
11840;DHT22;5979;50.800;4.904;2023-12-29T04:08:18;10.50;99.90
11840;DHT22;5979;50.800;4.904;2023-12-29T04:10:44;10.50;99.90
11840;DHT22;5979;50.800;4.904;2023-12-29T04:13:10;10.60;99.90
11840;DHT22;5979;50.800;4.904;2023-12-29T04:15:36;10.50;99.90
11840;DHT22;5979;50.800;4.904;2023-12-29T04:18:01;10.50;99.90
11840;DHT22;5979;50.800;4.904;2023-12-29T04:20:27;10.50;99.90
11840;DHT22;5979;50.800;4.904;2023-12-29T04:22:54;10.40;99.90
11840;DHT22;5979;50.800;4.904;2023-12-29T04:25:20;10.40;99.90
11840;DHT22;5979;50.800;4.904;2023-12-29T04:27:46;10.30;99.90
11840;DHT22;5979;50.800;4.904;2023-12-29T04:30:13;10.30;99.90
11840;DHT22;5979;50.800;4.904;2023-12-29T04:32:39;10.30;99.90
11840;DHT22;5979;50.800;4.904;2023-12-29T04:35:05;10.20;99.90
11840;DHT22;5979;50.800;4.904;2023-12-29T04:37:30;10.20;99.90
11840;DHT22;5979;50.800;4.904;2023-12-29T04:39:56;10.20;99.90
11840;DHT22;5979;50.800;4.904;2023-12-29T04:42:22;10.20;99.90
11840;DHT22;5979;50.800;4.904;2023-12-29T04:44:47;10.20;99.90
11840;DHT22;5979;50.800;4.904;2023-12-29T04:47:13;10.10;99.90
11840;DHT22;5979;50.800;4.904;2023-12-29T04:49:39;10.10;99.90
11840;DHT22;5979;50.800;4.904;2023-12-29T04:52:04;10.10;99.90
11840;DHT22;5979;50.800;4.904;2023-12-29T04:54:30;10.10;99.90
11840;DHT22;5979;50.800;4.904;2023-12-29T04:56:58;10.10;99.90
11840;DHT22;5979;50.800;4.904;2023-12-29T04:59:23;10.10;99.90
11840;DHT22;5979;50.800;4.904;2023-12-29T05:01:49;10.10;99.90
11840;DHT22;5979;50.800;4.904;2023-12-29T05:04:15;10.10;99.90
11840;DHT22;5979;50.800;4.904;2023-12-29T05:06:42;10.10;99.90
11840;DHT22;5979;50.800;4.904;2023-12-29T05:09:08;10.10;99.90
11840;DHT22;5979;50.800;4.904;2023-12-29T05:11:33;10.10;99.90
11840;DHT22;5979;50.800;4.904;2023-12-29T05:13:59;10.20;99.90
11840;DHT22;5979;50.800;4.904;2023-12-29T05:16:25;10.20;99.90
11840;DHT22;5979;50.800;4.904;2023-12-29T05:18:50;10.30;99.90
11840;DHT22;5979;50.800;4.904;2023-12-29T05:21:17;10.30;99.90
11840;DHT22;5979;50.800;4.904;2023-12-29T05:23:46;10.30;99.90
11840;DHT22;5979;50.800;4.904;2023-12-29T05:26:13;10.40;99.90
11840;DHT22;5979;50.800;4.904;2023-12-29T05:28:39;10.40;99.90
11840;DHT22;5979;50.800;4.904;2023-12-29T05:31:05;10.40;99.90
11840;DHT22;5979;50.800;4.904;2023-12-29T05:33:31;10.40;99.90
11840;DHT22;5979;50.800;4.904;2023-12-29T05:35:57;10.40;99.90
11840;DHT22;5979;50.800;4.904;2023-12-29T05:38:23;10.40;99.90
11840;DHT22;5979;50.800;4.904;2023-12-29T05:40:49;10.40;99.90
11840;DHT22;5979;50.800;4.904;2023-12-29T05:43:15;10.40;99.90
11840;DHT22;5979;50.800;4.904;2023-12-29T05:45:41;10.40;99.90
11840;DHT22;5979;50.800;4.904;2023-12-29T05:48:07;10.50;99.90
11840;DHT22;5979;50.800;4.904;2023-12-29T05:50:33;10.40;99.90
11840;DHT22;5979;50.800;4.904;2023-12-29T05:52:59;10.50;99.90
11840;DHT22;5979;50.800;4.904;2023-12-29T05:55:25;10.50;99.90
11840;DHT22;5979;50.800;4.904;2023-12-29T05:57:50;10.40;99.90
11840;DHT22;5979;50.800;4.904;2023-12-29T06:00:16;10.40;99.90
11840;DHT22;5979;50.800;4.904;2023-12-29T06:02:43;10.40;99.90
11840;DHT22;5979;50.800;4.904;2023-12-29T06:05:11;10.50;99.90
11840;DHT22;5979;50.800;4.904;2023-12-29T06:07:37;10.40;99.90
11840;DHT22;5979;50.800;4.904;2023-12-29T06:10:03;10.50;99.90
11840;DHT22;5979;50.800;4.904;2023-12-29T06:12:29;10.50;99.90
11840;DHT22;5979;50.800;4.904;2023-12-29T06:14:55;10.50;99.90
11840;DHT22;5979;50.800;4.904;2023-12-29T06:17:21;10.50;99.90
11840;DHT22;5979;50.800;4.904;2023-12-29T06:19:46;10.50;99.90
11840;DHT22;5979;50.800;4.904;2023-12-29T06:22:12;10.50;99.90
11840;DHT22;5979;50.800;4.904;2023-12-29T06:24:40;10.40;99.90
11840;DHT22;5979;50.800;4.904;2023-12-29T06:27:09;10.50;99.90
11840;DHT22;5979;50.800;4.904;2023-12-29T06:29:35;10.50;99.90
11840;DHT22;5979;50.800;4.904;2023-12-29T06:32:01;10.40;99.90
11840;DHT22;5979;50.800;4.904;2023-12-29T06:34:26;10.40;99.90
11840;DHT22;5979;50.800;4.904;2023-12-29T06:36:52;10.30;99.90
11840;DHT22;5979;50.800;4.904;2023-12-29T06:39:18;10.20;99.90
11840;DHT22;5979;50.800;4.904;2023-12-29T06:41:43;10.20;99.90
11840;DHT22;5979;50.800;4.904;2023-12-29T06:44:09;10.10;99.90
11840;DHT22;5979;50.800;4.904;2023-12-29T06:46:39;10.10;99.90
11840;DHT22;5979;50.800;4.904;2023-12-29T06:49:09;10.10;99.90
11840;DHT22;5979;50.800;4.904;2023-12-29T06:51:34;10.00;99.90
11840;DHT22;5979;50.800;4.904;2023-12-29T06:54:06;10.00;99.90
11840;DHT22;5979;50.800;4.904;2023-12-29T06:56:32;9.90;99.90
11840;DHT22;5979;50.800;4.904;2023-12-29T06:58:58;9.90;99.90
11840;DHT22;5979;50.800;4.904;2023-12-29T07:01:23;9.90;99.90
11840;DHT22;5979;50.800;4.904;2023-12-29T07:03:50;9.80;99.90
11840;DHT22;5979;50.800;4.904;2023-12-29T07:06:16;9.80;99.90
11840;DHT22;5979;50.800;4.904;2023-12-29T07:08:41;9.80;99.90
11840;DHT22;5979;50.800;4.904;2023-12-29T07:11:11;9.80;99.90
11840;DHT22;5979;50.800;4.904;2023-12-29T07:13:37;9.80;99.90
11840;DHT22;5979;50.800;4.904;2023-12-29T07:16:04;9.80;99.90
11840;DHT22;5979;50.800;4.904;2023-12-29T07:18:29;9.80;99.90
11840;DHT22;5979;50.800;4.904;2023-12-29T07:20:55;9.80;99.90
11840;DHT22;5979;50.800;4.904;2023-12-29T07:23:21;9.70;99.90
11840;DHT22;5979;50.800;4.904;2023-12-29T07:25:48;9.70;99.90
11840;DHT22;5979;50.800;4.904;2023-12-29T07:28:14;9.70;99.90
11840;DHT22;5979;50.800;4.904;2023-12-29T07:30:39;9.70;99.90
11840;DHT22;5979;50.800;4.904;2023-12-29T07:33:05;9.70;99.90
11840;DHT22;5979;50.800;4.904;2023-12-29T07:35:31;9.70;99.90
11840;DHT22;5979;50.800;4.904;2023-12-29T07:37:57;9.70;99.90
11840;DHT22;5979;50.800;4.904;2023-12-29T07:40:23;9.70;99.90
11840;DHT22;5979;50.800;4.904;2023-12-29T07:42:49;9.70;99.90
11840;DHT22;5979;50.800;4.904;2023-12-29T07:45:16;9.80;99.90
11840;DHT22;5979;50.800;4.904;2023-12-29T07:47:42;9.80;99.90
11840;DHT22;5979;50.800;4.904;2023-12-29T07:50:08;9.80;99.90
11840;DHT22;5979;50.800;4.904;2023-12-29T07:52:34;9.70;99.90
11840;DHT22;5979;50.800;4.904;2023-12-29T07:55:00;9.70;99.90
11840;DHT22;5979;50.800;4.904;2023-12-29T07:57:26;9.70;99.90
11840;DHT22;5979;50.800;4.904;2023-12-29T08:00:11;9.70;99.90
11840;DHT22;5979;50.800;4.904;2023-12-29T08:02:37;9.80;99.90
11840;DHT22;5979;50.800;4.904;2023-12-29T08:05:03;9.80;99.90
11840;DHT22;5979;50.800;4.904;2023-12-29T08:07:28;9.80;99.90
11840;DHT22;5979;50.800;4.904;2023-12-29T08:09:54;9.70;99.90
11840;DHT22;5979;50.800;4.904;2023-12-29T08:12:20;9.80;99.90
11840;DHT22;5979;50.800;4.904;2023-12-29T08:14:45;9.80;99.90
11840;DHT22;5979;50.800;4.904;2023-12-29T08:17:12;9.80;99.90
11840;DHT22;5979;50.800;4.904;2023-12-29T08:19:38;9.80;99.90
11840;DHT22;5979;50.800;4.904;2023-12-29T08:22:03;9.80;99.90
11840;DHT22;5979;50.800;4.904;2023-12-29T08:24:29;9.80;99.90
11840;DHT22;5979;50.800;4.904;2023-12-29T08:26:55;9.80;99.90
11840;DHT22;5979;50.800;4.904;2023-12-29T08:29:20;9.80;99.90
11840;DHT22;5979;50.800;4.904;2023-12-29T08:31:47;9.80;99.90
11840;DHT22;5979;50.800;4.904;2023-12-29T08:34:12;9.80;99.90
11840;DHT22;5979;50.800;4.904;2023-12-29T08:36:38;9.80;99.90
11840;DHT22;5979;50.800;4.904;2023-12-29T08:39:04;9.80;99.90
11840;DHT22;5979;50.800;4.904;2023-12-29T08:41:29;9.90;99.90
11840;DHT22;5979;50.800;4.904;2023-12-29T08:44:20;9.90;99.90
11840;DHT22;5979;50.800;4.904;2023-12-29T08:46:46;10.00;99.90
11840;DHT22;5979;50.800;4.904;2023-12-29T08:49:11;10.00;99.90
11840;DHT22;5979;50.800;4.904;2023-12-29T08:51:37;10.10;99.90
11840;DHT22;5979;50.800;4.904;2023-12-29T08:54:03;10.10;99.90
11840;DHT22;5979;50.800;4.904;2023-12-29T08:56:29;10.20;99.90
11840;DHT22;5979;50.800;4.904;2023-12-29T08:58:55;10.20;99.90
11840;DHT22;5979;50.800;4.904;2023-12-29T09:01:20;10.20;99.90
11840;DHT22;5979;50.800;4.904;2023-12-29T09:03:46;10.30;99.90
11840;DHT22;5979;50.800;4.904;2023-12-29T09:06:12;10.30;99.90
11840;DHT22;5979;50.800;4.904;2023-12-29T09:08:37;10.40;99.90
11840;DHT22;5979;50.800;4.904;2023-12-29T09:11:04;10.40;99.90
11840;DHT22;5979;50.800;4.904;2023-12-29T09:16:49;10.40;99.90
11840;DHT22;5979;50.800;4.904;2023-12-29T09:19:16;10.50;99.90
11840;DHT22;5979;50.800;4.904;2023-12-29T09:21:42;10.50;99.90
11840;DHT22;5979;50.800;4.904;2023-12-29T09:24:07;10.60;99.90
11840;DHT22;5979;50.800;4.904;2023-12-29T09:26:33;10.60;99.90
11840;DHT22;5979;50.800;4.904;2023-12-29T09:28:59;10.60;99.90
11840;DHT22;5979;50.800;4.904;2023-12-29T09:31:24;10.60;99.90
11840;DHT22;5979;50.800;4.904;2023-12-29T09:33:50;10.60;99.90
11840;DHT22;5979;50.800;4.904;2023-12-29T09:36:42;10.70;99.90
11840;DHT22;5979;50.800;4.904;2023-12-29T09:39:08;10.70;99.90
11840;DHT22;5979;50.800;4.904;2023-12-29T09:41:36;10.80;99.90
11840;DHT22;5979;50.800;4.904;2023-12-29T09:44:06;10.80;99.90
11840;DHT22;5979;50.800;4.904;2023-12-29T09:46:36;10.80;99.90
11840;DHT22;5979;50.800;4.904;2023-12-29T09:49:03;10.80;99.90
11840;DHT22;5979;50.800;4.904;2023-12-29T09:51:32;10.90;99.90
11840;DHT22;5979;50.800;4.904;2023-12-29T09:53:58;10.90;99.90
11840;DHT22;5979;50.800;4.904;2023-12-29T09:56:24;11.00;99.90
11840;DHT22;5979;50.800;4.904;2023-12-29T09:58:51;11.00;99.90
11840;DHT22;5979;50.800;4.904;2023-12-29T10:01:18;11.10;99.90
11840;DHT22;5979;50.800;4.904;2023-12-29T10:03:47;11.10;99.90
11840;DHT22;5979;50.800;4.904;2023-12-29T10:06:16;11.10;99.90
11840;DHT22;5979;50.800;4.904;2023-12-29T10:08:45;11.10;99.90
11840;DHT22;5979;50.800;4.904;2023-12-29T10:11:14;11.00;99.90
11840;DHT22;5979;50.800;4.904;2023-12-29T10:13:42;11.00;99.90
11840;DHT22;5979;50.800;4.904;2023-12-29T10:16:18;11.00;99.90
11840;DHT22;5979;50.800;4.904;2023-12-29T10:20:02;11.00;99.90
11840;DHT22;5979;50.800;4.904;2023-12-29T10:22:03;11.00;99.90
11840;DHT22;5979;50.800;4.904;2023-12-29T10:24:32;11.00;99.90
11840;DHT22;5979;50.800;4.904;2023-12-29T10:26:58;11.00;99.90
11840;DHT22;5979;50.800;4.904;2023-12-29T10:29:27;11.10;99.90
11840;DHT22;5979;50.800;4.904;2023-12-29T10:31:52;11.10;99.90
11840;DHT22;5979;50.800;4.904;2023-12-29T10:34:24;11.20;99.90
11840;DHT22;5979;50.800;4.904;2023-12-29T10:36:58;11.20;99.90
11840;DHT22;5979;50.800;4.904;2023-12-29T10:39:24;11.20;99.90
11840;DHT22;5979;50.800;4.904;2023-12-29T10:42:02;11.30;99.90
11840;DHT22;5979;50.800;4.904;2023-12-29T10:44:27;11.30;99.90
11840;DHT22;5979;50.800;4.904;2023-12-29T10:46:53;11.40;99.90
11840;DHT22;5979;50.800;4.904;2023-12-29T10:49:19;11.40;99.90
11840;DHT22;5979;50.800;4.904;2023-12-29T10:51:44;11.40;99.90
11840;DHT22;5979;50.800;4.904;2023-12-29T10:54:19;11.40;99.90
11840;DHT22;5979;50.800;4.904;2023-12-29T10:56:47;11.40;99.90
11840;DHT22;5979;50.800;4.904;2023-12-29T10:59:25;11.40;99.90
11840;DHT22;5979;50.800;4.904;2023-12-29T11:01:51;11.50;99.90
11840;DHT22;5979;50.800;4.904;2023-12-29T11:04:22;11.40;99.90
11840;DHT22;5979;50.800;4.904;2023-12-29T11:06:48;11.40;99.90
11840;DHT22;5979;50.800;4.904;2023-12-29T11:09:36;11.40;99.90
11840;DHT22;5979;50.800;4.904;2023-12-29T11:12:03;11.30;99.90
11840;DHT22;5979;50.800;4.904;2023-12-29T11:14:30;11.30;99.90
11840;DHT22;5979;50.800;4.904;2023-12-29T11:17:00;11.30;99.90
11840;DHT22;5979;50.800;4.904;2023-12-29T11:19:26;11.30;99.90
11840;DHT22;5979;50.800;4.904;2023-12-29T11:21:55;11.30;99.90
11840;DHT22;5979;50.800;4.904;2023-12-29T11:24:21;11.30;99.90
11840;DHT22;5979;50.800;4.904;2023-12-29T11:26:49;11.30;99.90
11840;DHT22;5979;50.800;4.904;2023-12-29T11:29:16;11.30;99.90
11840;DHT22;5979;50.800;4.904;2023-12-29T11:31:43;11.30;99.90
11840;DHT22;5979;50.800;4.904;2023-12-29T11:34:27;11.30;99.90
11840;DHT22;5979;50.800;4.904;2023-12-29T11:37:07;11.30;99.90
11840;DHT22;5979;50.800;4.904;2023-12-29T11:39:54;11.30;99.90
11840;DHT22;5979;50.800;4.904;2023-12-29T11:42:29;11.30;99.90
11840;DHT22;5979;50.800;4.904;2023-12-29T11:44:56;11.30;99.90
11840;DHT22;5979;50.800;4.904;2023-12-29T11:47:36;11.30;99.90
11840;DHT22;5979;50.800;4.904;2023-12-29T11:50:05;11.30;99.90
11840;DHT22;5979;50.800;4.904;2023-12-29T11:55:10;11.30;99.90
11840;DHT22;5979;50.800;4.904;2023-12-29T11:57:36;11.30;99.90
11840;DHT22;5979;50.800;4.904;2023-12-29T12:00:06;11.30;99.90
11840;DHT22;5979;50.800;4.904;2023-12-29T12:02:32;11.30;99.90
11840;DHT22;5979;50.800;4.904;2023-12-29T12:04:58;11.30;99.90
11840;DHT22;5979;50.800;4.904;2023-12-29T12:09:49;11.30;99.90
11840;DHT22;5979;50.800;4.904;2023-12-29T12:12:41;11.30;99.90
11840;DHT22;5979;50.800;4.904;2023-12-29T12:17:52;11.30;99.90
11840;DHT22;5979;50.800;4.904;2023-12-29T12:20:18;11.30;99.90
11840;DHT22;5979;50.800;4.904;2023-12-29T12:22:44;11.30;99.90
11840;DHT22;5979;50.800;4.904;2023-12-29T12:25:14;11.30;99.90
11840;DHT22;5979;50.800;4.904;2023-12-29T12:27:40;11.20;99.90
11840;DHT22;5979;50.800;4.904;2023-12-29T12:30:06;11.20;99.90
11840;DHT22;5979;50.800;4.904;2023-12-29T12:32:35;11.10;99.90
11840;DHT22;5979;50.800;4.904;2023-12-29T12:35:01;11.00;99.90
11840;DHT22;5979;50.800;4.904;2023-12-29T12:37:28;11.00;99.90
11840;DHT22;5979;50.800;4.904;2023-12-29T12:39:55;11.00;99.90
11840;DHT22;5979;50.800;4.904;2023-12-29T12:42:21;10.90;99.90
11840;DHT22;5979;50.800;4.904;2023-12-29T12:45:04;10.90;99.90
11840;DHT22;5979;50.800;4.904;2023-12-29T12:47:52;10.80;99.90
11840;DHT22;5979;50.800;4.904;2023-12-29T12:50:19;10.80;99.90
11840;DHT22;5979;50.800;4.904;2023-12-29T12:52:45;10.80;99.90
11840;DHT22;5979;50.800;4.904;2023-12-29T12:55:11;10.80;99.90
11840;DHT22;5979;50.800;4.904;2023-12-29T12:57:38;10.70;99.90
11840;DHT22;5979;50.800;4.904;2023-12-29T13:00:05;10.70;99.90
11840;DHT22;5979;50.800;4.904;2023-12-29T13:02:32;10.60;99.90
11840;DHT22;5979;50.800;4.904;2023-12-29T13:04:58;10.70;99.90
11840;DHT22;5979;50.800;4.904;2023-12-29T13:07:24;10.70;99.90
11840;DHT22;5979;50.800;4.904;2023-12-29T13:09:50;10.60;99.90
11840;DHT22;5979;50.800;4.904;2023-12-29T13:12:17;10.70;99.90
11840;DHT22;5979;50.800;4.904;2023-12-29T13:14:44;10.70;99.90
11840;DHT22;5979;50.800;4.904;2023-12-29T13:17:13;10.70;99.90
11840;DHT22;5979;50.800;4.904;2023-12-29T13:19:39;10.80;99.90
11840;DHT22;5979;50.800;4.904;2023-12-29T13:22:07;10.80;99.90
11840;DHT22;5979;50.800;4.904;2023-12-29T13:24:33;10.80;99.90
11840;DHT22;5979;50.800;4.904;2023-12-29T13:27:07;10.80;99.90
11840;DHT22;5979;50.800;4.904;2023-12-29T13:29:36;10.80;99.90
11840;DHT22;5979;50.800;4.904;2023-12-29T13:32:21;10.80;99.90
11840;DHT22;5979;50.800;4.904;2023-12-29T13:37:41;11.00;99.90
11840;DHT22;5979;50.800;4.904;2023-12-29T13:40:17;11.00;99.90
11840;DHT22;5979;50.800;4.904;2023-12-29T13:42:48;11.00;99.90
11840;DHT22;5979;50.800;4.904;2023-12-29T13:45:16;11.00;99.90
11840;DHT22;5979;50.800;4.904;2023-12-29T13:47:43;11.00;99.90
11840;DHT22;5979;50.800;4.904;2023-12-29T13:50:10;11.00;99.90
11840;DHT22;5979;50.800;4.904;2023-12-29T13:52:36;11.00;99.90
11840;DHT22;5979;50.800;4.904;2023-12-29T13:55:03;11.00;99.90
11840;DHT22;5979;50.800;4.904;2023-12-29T13:57:34;11.00;99.90
11840;DHT22;5979;50.800;4.904;2023-12-29T14:00:19;11.10;99.90
11840;DHT22;5979;50.800;4.904;2023-12-29T14:03:09;11.10;99.90
11840;DHT22;5979;50.800;4.904;2023-12-29T14:05:51;11.10;99.90
11840;DHT22;5979;50.800;4.904;2023-12-29T14:08:25;11.00;99.90
11840;DHT22;5979;50.800;4.904;2023-12-29T14:10:52;11.00;99.90
11840;DHT22;5979;50.800;4.904;2023-12-29T14:13:19;11.00;99.90
11840;DHT22;5979;50.800;4.904;2023-12-29T14:15:46;11.00;99.90
11840;DHT22;5979;50.800;4.904;2023-12-29T14:20:55;10.90;99.90
11840;DHT22;5979;50.800;4.904;2023-12-29T14:23:21;10.80;99.90
11840;DHT22;5979;50.800;4.904;2023-12-29T14:25:46;10.80;99.90
11840;DHT22;5979;50.800;4.904;2023-12-29T14:28:17;10.80;99.90
11840;DHT22;5979;50.800;4.904;2023-12-29T14:30:44;10.80;99.90
11840;DHT22;5979;50.800;4.904;2023-12-29T14:33:10;10.80;99.90
11840;DHT22;5979;50.800;4.904;2023-12-29T14:35:35;10.80;99.90
11840;DHT22;5979;50.800;4.904;2023-12-29T14:38:01;10.80;99.90
11840;DHT22;5979;50.800;4.904;2023-12-29T14:40:27;10.80;99.90
11840;DHT22;5979;50.800;4.904;2023-12-29T14:42:53;10.80;99.90
11840;DHT22;5979;50.800;4.904;2023-12-29T14:45:20;10.80;99.90
11840;DHT22;5979;50.800;4.904;2023-12-29T14:47:45;10.70;99.90
11840;DHT22;5979;50.800;4.904;2023-12-29T14:50:12;10.70;99.90
11840;DHT22;5979;50.800;4.904;2023-12-29T14:52:38;10.70;99.90
11840;DHT22;5979;50.800;4.904;2023-12-29T14:55:04;10.60;99.90
11840;DHT22;5979;50.800;4.904;2023-12-29T14:57:30;10.60;99.90
11840;DHT22;5979;50.800;4.904;2023-12-29T14:59:56;10.60;99.90
11840;DHT22;5979;50.800;4.904;2023-12-29T15:02:22;10.60;99.90
11840;DHT22;5979;50.800;4.904;2023-12-29T15:04:47;10.60;99.90
11840;DHT22;5979;50.800;4.904;2023-12-29T15:07:15;10.70;99.90
11840;DHT22;5979;50.800;4.904;2023-12-29T15:09:41;10.70;99.90
11840;DHT22;5979;50.800;4.904;2023-12-29T15:12:07;10.70;99.90
11840;DHT22;5979;50.800;4.904;2023-12-29T15:14:33;10.70;99.90
11840;DHT22;5979;50.800;4.904;2023-12-29T15:16:58;10.70;99.90
11840;DHT22;5979;50.800;4.904;2023-12-29T15:19:24;10.70;99.90
11840;DHT22;5979;50.800;4.904;2023-12-29T15:21:49;10.70;99.90
11840;DHT22;5979;50.800;4.904;2023-12-29T15:24:19;10.60;99.90
11840;DHT22;5979;50.800;4.904;2023-12-29T15:26:45;10.60;99.90
11840;DHT22;5979;50.800;4.904;2023-12-29T15:29:11;10.70;99.90
11840;DHT22;5979;50.800;4.904;2023-12-29T15:31:37;10.60;99.90
11840;DHT22;5979;50.800;4.904;2023-12-29T15:34:02;10.70;99.90
11840;DHT22;5979;50.800;4.904;2023-12-29T15:36:29;10.60;99.90
11840;DHT22;5979;50.800;4.904;2023-12-29T15:38:55;10.60;99.90
11840;DHT22;5979;50.800;4.904;2023-12-29T15:41:20;10.60;99.90
11840;DHT22;5979;50.800;4.904;2023-12-29T15:43:46;10.60;99.90
11840;DHT22;5979;50.800;4.904;2023-12-29T15:46:17;10.60;99.90
11840;DHT22;5979;50.800;4.904;2023-12-29T15:48:43;10.60;99.90
11840;DHT22;5979;50.800;4.904;2023-12-29T15:51:10;10.60;99.90
11840;DHT22;5979;50.800;4.904;2023-12-29T15:53:36;10.60;99.90
11840;DHT22;5979;50.800;4.904;2023-12-29T15:56:02;10.60;99.90
11840;DHT22;5979;50.800;4.904;2023-12-29T15:58:29;10.60;99.90
11840;DHT22;5979;50.800;4.904;2023-12-29T16:00:55;10.60;99.90
11840;DHT22;5979;50.800;4.904;2023-12-29T16:03:21;10.60;99.90
11840;DHT22;5979;50.800;4.904;2023-12-29T16:05:46;10.60;99.90
11840;DHT22;5979;50.800;4.904;2023-12-29T16:08:12;10.60;99.90
11840;DHT22;5979;50.800;4.904;2023-12-29T16:10:38;10.60;99.90